Saint-Joachim, Canada
Current Conditions -  °F | °C
As of 6:00 PM on Wednesday 22 Oct 2014 (Local Time) from CYQB Reporting Station
Scattered Clouds Scattered Clouds  
Wind Chill: 38°   Ceiling: Unl
Heat Index: 45°   Visibility: 30mi
Dew Point: 34°   Wind: 15mph
Humidity: 66%   Direction: 60°ENE
Pressure: 30.34"   Gusts: NA
Location:  47.05°N, 70.85°W
Report Text: CYQB 222200Z 06013KT 30SM FEW100 SCT230 07/01 A3034 RMK AC2CI1 SLP276
Loading
Personal Weather Stations






























Interactive Weather Map
Tropical Storm Tracking
New forecast layout! Learn more

10-Day Weather Forecast

Advertisements
Track Severe Weather on mobile